sensor_id;sensor_type;location;lat;lon;timestamp;P1;durP1;ratioP1;P2;durP2;ratioP2
18702;SDS011;9481;48.796;9.210;2023-02-11T00:00:24;29.63;;;17.33;;
18702;SDS011;9481;48.796;9.210;2023-02-11T00:02:50;33.70;;;18.07;;
18702;SDS011;9481;48.796;9.210;2023-02-11T00:05:15;31.70;;;18.00;;
18702;SDS011;9481;48.796;9.210;2023-02-11T00:07:41;34.67;;;18.87;;
18702;SDS011;9481;48.796;9.210;2023-02-11T00:10:07;29.73;;;17.93;;
18702;SDS011;9481;48.796;9.210;2023-02-11T00:12:33;35.40;;;19.30;;
18702;SDS011;9481;48.796;9.210;2023-02-11T00:15:00;33.47;;;18.27;;
18702;SDS011;9481;48.796;9.210;2023-02-11T00:17:26;35.80;;;19.33;;
18702;SDS011;9481;48.796;9.210;2023-02-11T00:19:52;33.80;;;18.70;;
18702;SDS011;9481;48.796;9.210;2023-02-11T00:22:18;32.43;;;18.03;;
18702;SDS011;9481;48.796;9.210;2023-02-11T00:24:44;32.80;;;17.57;;
18702;SDS011;9481;48.796;9.210;2023-02-11T00:27:10;33.37;;;17.93;;
18702;SDS011;9481;48.796;9.210;2023-02-11T00:29:35;31.33;;;17.43;;
18702;SDS011;9481;48.796;9.210;2023-02-11T00:32:02;29.97;;;16.77;;
18702;SDS011;9481;48.796;9.210;2023-02-11T00:34:30;34.37;;;18.27;;
18702;SDS011;9481;48.796;9.210;2023-02-11T00:36:57;30.80;;;17.80;;
18702;SDS011;9481;48.796;9.210;2023-02-11T00:39:23;29.73;;;17.00;;
18702;SDS011;9481;48.796;9.210;2023-02-11T00:41:48;31.63;;;17.87;;
18702;SDS011;9481;48.796;9.210;2023-02-11T00:44:14;34.87;;;18.70;;
18702;SDS011;9481;48.796;9.210;2023-02-11T00:46:40;32.77;;;18.53;;
18702;SDS011;9481;48.796;9.210;2023-02-11T00:49:06;32.20;;;18.97;;
18702;SDS011;9481;48.796;9.210;2023-02-11T00:51:31;34.57;;;18.17;;
18702;SDS011;9481;48.796;9.210;2023-02-11T00:53:57;31.33;;;17.57;;
18702;SDS011;9481;48.796;9.210;2023-02-11T00:56:23;35.13;;;18.10;;
18702;SDS011;9481;48.796;9.210;2023-02-11T00:58:49;35.40;;;18.53;;
18702;SDS011;9481;48.796;9.210;2023-02-11T01:01:15;39.13;;;19.63;;
18702;SDS011;9481;48.796;9.210;2023-02-11T01:03:40;33.17;;;18.93;;
18702;SDS011;9481;48.796;9.210;2023-02-11T01:06:06;30.17;;;17.50;;
18702;SDS011;9481;48.796;9.210;2023-02-11T01:08:33;33.27;;;17.93;;
18702;SDS011;9481;48.796;9.210;2023-02-11T01:11:00;34.37;;;18.03;;
18702;SDS011;9481;48.796;9.210;2023-02-11T01:13:29;35.20;;;18.27;;
18702;SDS011;9481;48.796;9.210;2023-02-11T01:15:58;31.20;;;19.00;;
18702;SDS011;9481;48.796;9.210;2023-02-11T01:18:24;36.43;;;18.80;;
18702;SDS011;9481;48.796;9.210;2023-02-11T01:20:51;32.50;;;18.30;;
18702;SDS011;9481;48.796;9.210;2023-02-11T01:23:18;34.00;;;18.10;;
18702;SDS011;9481;48.796;9.210;2023-02-11T01:25:45;30.90;;;18.13;;
18702;SDS011;9481;48.796;9.210;2023-02-11T01:28:14;33.10;;;18.93;;
18702;SDS011;9481;48.796;9.210;2023-02-11T01:30:45;32.90;;;18.30;;
18702;SDS011;9481;48.796;9.210;2023-02-11T01:33:11;31.23;;;19.43;;
18702;SDS011;9481;48.796;9.210;2023-02-11T01:35:37;37.40;;;19.13;;
18702;SDS011;9481;48.796;9.210;2023-02-11T01:38:05;36.27;;;18.47;;
18702;SDS011;9481;48.796;9.210;2023-02-11T01:40:32;30.23;;;18.57;;
18702;SDS011;9481;48.796;9.210;2023-02-11T01:42:58;32.00;;;18.73;;
18702;SDS011;9481;48.796;9.210;2023-02-11T01:48:09;34.47;;;20.07;;
18702;SDS011;9481;48.796;9.210;2023-02-11T01:50:48;31.30;;;19.13;;
18702;SDS011;9481;48.796;9.210;2023-02-11T01:53:18;32.07;;;18.30;;
18702;SDS011;9481;48.796;9.210;2023-02-11T01:56:03;30.13;;;17.37;;
18702;SDS011;9481;48.796;9.210;2023-02-11T01:58:50;35.73;;;18.90;;
18702;SDS011;9481;48.796;9.210;2023-02-11T02:01:26;33.37;;;18.27;;
18702;SDS011;9481;48.796;9.210;2023-02-11T02:03:56;33.20;;;18.57;;
18702;SDS011;9481;48.796;9.210;2023-02-11T02:06:32;34.67;;;19.07;;
18702;SDS011;9481;48.796;9.210;2023-02-11T02:09:05;40.00;;;19.67;;
18702;SDS011;9481;48.796;9.210;2023-02-11T02:11:45;36.10;;;18.97;;
18702;SDS011;9481;48.796;9.210;2023-02-11T02:14:12;31.60;;;18.43;;
18702;SDS011;9481;48.796;9.210;2023-02-11T02:16:37;36.27;;;18.93;;
18702;SDS011;9481;48.796;9.210;2023-02-11T02:34:23;31.43;;;17.70;;
18702;SDS011;9481;48.796;9.210;2023-02-11T02:37:18;32.53;;;17.63;;
18702;SDS011;9481;48.796;9.210;2023-02-11T02:39:51;33.40;;;18.73;;
18702;SDS011;9481;48.796;9.210;2023-02-11T02:42:17;31.73;;;17.20;;
18702;SDS011;9481;48.796;9.210;2023-02-11T02:44:50;30.57;;;16.60;;
18702;SDS011;9481;48.796;9.210;2023-02-11T02:47:19;31.77;;;17.23;;
18702;SDS011;9481;48.796;9.210;2023-02-11T02:49:45;32.23;;;17.90;;
18702;SDS011;9481;48.796;9.210;2023-02-11T03:00:43;29.97;;;17.57;;
18702;SDS011;9481;48.796;9.210;2023-02-11T03:06:29;32.30;;;17.13;;
18702;SDS011;9481;48.796;9.210;2023-02-11T03:09:25;28.90;;;17.33;;
18702;SDS011;9481;48.796;9.210;2023-02-11T03:12:14;31.60;;;17.23;;
18702;SDS011;9481;48.796;9.210;2023-02-11T03:14:41;33.43;;;17.93;;
18702;SDS011;9481;48.796;9.210;2023-02-11T03:17:09;31.13;;;18.13;;
18702;SDS011;9481;48.796;9.210;2023-02-11T03:19:42;29.07;;;17.87;;
18702;SDS011;9481;48.796;9.210;2023-02-11T03:22:21;29.83;;;17.13;;
18702;SDS011;9481;48.796;9.210;2023-02-11T03:24:54;33.40;;;17.77;;
18702;SDS011;9481;48.796;9.210;2023-02-11T03:27:24;31.07;;;17.23;;
18702;SDS011;9481;48.796;9.210;2023-02-11T03:30:02;28.27;;;16.30;;
18702;SDS011;9481;48.796;9.210;2023-02-11T03:32:48;31.70;;;17.87;;
18702;SDS011;9481;48.796;9.210;2023-02-11T03:35:20;32.57;;;18.63;;
18702;SDS011;9481;48.796;9.210;2023-02-11T03:38:04;32.30;;;18.03;;
18702;SDS011;9481;48.796;9.210;2023-02-11T03:40:39;30.13;;;17.63;;
18702;SDS011;9481;48.796;9.210;2023-02-11T03:43:11;30.53;;;17.37;;
18702;SDS011;9481;48.796;9.210;2023-02-11T03:45:55;27.37;;;16.90;;
18702;SDS011;9481;48.796;9.210;2023-02-11T03:48:30;31.20;;;17.27;;
18702;SDS011;9481;48.796;9.210;2023-02-11T03:51:02;30.67;;;17.33;;
18702;SDS011;9481;48.796;9.210;2023-02-11T03:53:33;28.73;;;16.93;;
18702;SDS011;9481;48.796;9.210;2023-02-11T03:56:02;27.90;;;16.53;;
18702;SDS011;9481;48.796;9.210;2023-02-11T03:58:32;29.93;;;17.10;;
18702;SDS011;9481;48.796;9.210;2023-02-11T04:00:58;33.67;;;17.80;;
18702;SDS011;9481;48.796;9.210;2023-02-11T04:03:26;30.77;;;17.03;;
18702;SDS011;9481;48.796;9.210;2023-02-11T04:05:52;32.77;;;17.27;;
18702;SDS011;9481;48.796;9.210;2023-02-11T04:08:18;29.13;;;17.23;;
18702;SDS011;9481;48.796;9.210;2023-02-11T04:10:44;33.80;;;17.10;;
18702;SDS011;9481;48.796;9.210;2023-02-11T04:13:10;28.77;;;16.33;;
18702;SDS011;9481;48.796;9.210;2023-02-11T04:15:36;29.13;;;17.17;;
18702;SDS011;9481;48.796;9.210;2023-02-11T04:18:01;30.53;;;17.47;;
18702;SDS011;9481;48.796;9.210;2023-02-11T04:20:28;28.80;;;16.80;;
18702;SDS011;9481;48.796;9.210;2023-02-11T04:22:54;28.07;;;16.70;;
18702;SDS011;9481;48.796;9.210;2023-02-11T04:25:19;27.93;;;17.27;;
18702;SDS011;9481;48.796;9.210;2023-02-11T04:27:45;32.23;;;17.17;;
18702;SDS011;9481;48.796;9.210;2023-02-11T04:30:11;31.93;;;16.87;;
18702;SDS011;9481;48.796;9.210;2023-02-11T04:32:37;30.33;;;17.27;;
18702;SDS011;9481;48.796;9.210;2023-02-11T04:35:03;33.63;;;17.67;;
18702;SDS011;9481;48.796;9.210;2023-02-11T04:37:30;31.23;;;18.03;;
18702;SDS011;9481;48.796;9.210;2023-02-11T04:39:56;29.07;;;17.40;;
18702;SDS011;9481;48.796;9.210;2023-02-11T04:42:21;28.07;;;16.83;;
18702;SDS011;9481;48.796;9.210;2023-02-11T04:44:47;31.87;;;17.13;;
18702;SDS011;9481;48.796;9.210;2023-02-11T04:47:13;28.07;;;16.80;;
18702;SDS011;9481;48.796;9.210;2023-02-11T04:49:39;29.90;;;16.40;;
18702;SDS011;9481;48.796;9.210;2023-02-11T04:52:05;30.93;;;17.30;;
18702;SDS011;9481;48.796;9.210;2023-02-11T04:54:32;29.67;;;17.50;;
18702;SDS011;9481;48.796;9.210;2023-02-11T04:56:57;30.93;;;17.67;;
18702;SDS011;9481;48.796;9.210;2023-02-11T04:59:23;31.93;;;17.63;;
18702;SDS011;9481;48.796;9.210;2023-02-11T05:01:49;31.27;;;18.43;;
18702;SDS011;9481;48.796;9.210;2023-02-11T05:04:15;28.47;;;18.33;;
18702;SDS011;9481;48.796;9.210;2023-02-11T05:06:41;28.90;;;17.13;;
18702;SDS011;9481;48.796;9.210;2023-02-11T05:09:07;29.87;;;17.10;;
18702;SDS011;9481;48.796;9.210;2023-02-11T05:11:35;29.77;;;18.03;;
18702;SDS011;9481;48.796;9.210;2023-02-11T05:14:00;27.50;;;16.50;;
18702;SDS011;9481;48.796;9.210;2023-02-11T05:16:26;31.23;;;17.90;;
18702;SDS011;9481;48.796;9.210;2023-02-11T05:18:52;28.27;;;16.07;;
18702;SDS011;9481;48.796;9.210;2023-02-11T05:21:19;26.13;;;16.10;;
18702;SDS011;9481;48.796;9.210;2023-02-11T05:23:45;30.40;;;16.73;;
18702;SDS011;9481;48.796;9.210;2023-02-11T05:26:11;26.97;;;17.07;;
18702;SDS011;9481;48.796;9.210;2023-02-11T05:28:38;29.50;;;17.07;;
18702;SDS011;9481;48.796;9.210;2023-02-11T05:31:04;28.87;;;17.00;;
18702;SDS011;9481;48.796;9.210;2023-02-11T05:33:31;31.37;;;17.83;;
18702;SDS011;9481;48.796;9.210;2023-02-11T05:35:58;26.47;;;16.50;;
18702;SDS011;9481;48.796;9.210;2023-02-11T05:38:26;27.80;;;16.90;;
18702;SDS011;9481;48.796;9.210;2023-02-11T05:40:52;33.00;;;17.17;;
18702;SDS011;9481;48.796;9.210;2023-02-11T05:43:18;31.87;;;17.43;;
18702;SDS011;9481;48.796;9.210;2023-02-11T05:45:44;29.00;;;17.17;;
18702;SDS011;9481;48.796;9.210;2023-02-11T05:48:10;28.37;;;14.50;;
18702;SDS011;9481;48.796;9.210;2023-02-11T05:50:35;26.93;;;14.50;;
18702;SDS011;9481;48.796;9.210;2023-02-11T05:53:01;23.40;;;14.67;;
18702;SDS011;9481;48.796;9.210;2023-02-11T05:55:27;27.87;;;16.63;;
18702;SDS011;9481;48.796;9.210;2023-02-11T05:57:52;28.63;;;17.27;;
18702;SDS011;9481;48.796;9.210;2023-02-11T06:00:18;27.53;;;16.93;;
18702;SDS011;9481;48.796;9.210;2023-02-11T06:02:44;26.90;;;16.10;;
18702;SDS011;9481;48.796;9.210;2023-02-11T06:05:09;28.47;;;16.43;;
18702;SDS011;9481;48.796;9.210;2023-02-11T06:07:35;27.63;;;16.30;;
18702;SDS011;9481;48.796;9.210;2023-02-11T06:10:01;28.53;;;16.80;;
18702;SDS011;9481;48.796;9.210;2023-02-11T06:12:26;28.03;;;16.63;;
18702;SDS011;9481;48.796;9.210;2023-02-11T06:14:52;30.97;;;16.87;;
18702;SDS011;9481;48.796;9.210;2023-02-11T06:17:18;26.83;;;16.63;;
18702;SDS011;9481;48.796;9.210;2023-02-11T06:19:43;26.43;;;16.63;;
18702;SDS011;9481;48.796;9.210;2023-02-11T06:22:09;28.97;;;16.37;;
18702;SDS011;9481;48.796;9.210;2023-02-11T06:24:35;26.43;;;16.40;;
18702;SDS011;9481;48.796;9.210;2023-02-11T06:27:02;25.20;;;15.40;;
18702;SDS011;9481;48.796;9.210;2023-02-11T06:29:29;28.00;;;16.07;;
18702;SDS011;9481;48.796;9.210;2023-02-11T06:31:54;24.87;;;15.03;;
18702;SDS011;9481;48.796;9.210;2023-02-11T06:34:20;26.50;;;15.23;;
18702;SDS011;9481;48.796;9.210;2023-02-11T06:36:46;26.23;;;15.53;;
18702;SDS011;9481;48.796;9.210;2023-02-11T06:39:11;27.83;;;15.63;;
18702;SDS011;9481;48.796;9.210;2023-02-11T06:41:38;27.73;;;16.33;;
18702;SDS011;9481;48.796;9.210;2023-02-11T06:44:04;25.37;;;15.80;;
18702;SDS011;9481;48.796;9.210;2023-02-11T06:46:30;28.63;;;16.17;;
18702;SDS011;9481;48.796;9.210;2023-02-11T06:48:56;27.13;;;16.30;;
18702;SDS011;9481;48.796;9.210;2023-02-11T06:51:22;25.17;;;15.80;;
18702;SDS011;9481;48.796;9.210;2023-02-11T06:53:48;23.57;;;15.30;;
18702;SDS011;9481;48.796;9.210;2023-02-11T06:56:14;25.73;;;15.13;;
18702;SDS011;9481;48.796;9.210;2023-02-11T06:58:46;26.67;;;15.80;;
18702;SDS011;9481;48.796;9.210;2023-02-11T07:01:13;26.47;;;15.70;;
18702;SDS011;9481;48.796;9.210;2023-02-11T07:03:41;25.07;;;15.07;;
18702;SDS011;9481;48.796;9.210;2023-02-11T07:06:10;29.30;;;16.00;;
18702;SDS011;9481;48.796;9.210;2023-02-11T07:08:42;24.73;;;14.40;;
18702;SDS011;9481;48.796;9.210;2023-02-11T07:11:11;24.00;;;14.67;;
18702;SDS011;9481;48.796;9.210;2023-02-11T07:13:41;24.17;;;15.00;;
18702;SDS011;9481;48.796;9.210;2023-02-11T07:16:12;27.03;;;15.13;;
18702;SDS011;9481;48.796;9.210;2023-02-11T07:18:40;23.93;;;15.17;;
18702;SDS011;9481;48.796;9.210;2023-02-11T07:21:07;26.77;;;15.20;;
18702;SDS011;9481;48.796;9.210;2023-02-11T07:23:36;28.10;;;15.03;;
18702;SDS011;9481;48.796;9.210;2023-02-11T07:26:03;29.63;;;15.70;;
18702;SDS011;9481;48.796;9.210;2023-02-11T07:28:33;26.83;;;15.37;;
18702;SDS011;9481;48.796;9.210;2023-02-11T07:31:07;26.60;;;16.33;;
18702;SDS011;9481;48.796;9.210;2023-02-11T07:33:41;31.57;;;17.83;;
18702;SDS011;9481;48.796;9.210;2023-02-11T07:36:10;28.50;;;17.37;;
18702;SDS011;9481;48.796;9.210;2023-02-11T07:38:37;25.73;;;16.23;;
18702;SDS011;9481;48.796;9.210;2023-02-11T07:41:04;29.07;;;17.20;;
18702;SDS011;9481;48.796;9.210;2023-02-11T07:43:33;31.53;;;16.40;;
18702;SDS011;9481;48.796;9.210;2023-02-11T07:46:08;27.00;;;16.53;;
18702;SDS011;9481;48.796;9.210;2023-02-11T07:48:37;25.10;;;16.10;;
18702;SDS011;9481;48.796;9.210;2023-02-11T07:51:16;26.80;;;14.83;;
18702;SDS011;9481;48.796;9.210;2023-02-11T07:53:47;26.37;;;15.97;;
18702;SDS011;9481;48.796;9.210;2023-02-11T07:56:13;25.87;;;16.30;;
18702;SDS011;9481;48.796;9.210;2023-02-11T07:58:41;27.60;;;16.40;;
18702;SDS011;9481;48.796;9.210;2023-02-11T08:01:11;29.07;;;17.60;;
18702;SDS011;9481;48.796;9.210;2023-02-11T08:03:44;25.37;;;16.80;;
18702;SDS011;9481;48.796;9.210;2023-02-11T08:06:14;27.93;;;17.13;;
18702;SDS011;9481;48.796;9.210;2023-02-11T08:08:42;27.73;;;16.47;;
18702;SDS011;9481;48.796;9.210;2023-02-11T08:11:09;26.53;;;15.50;;
18702;SDS011;9481;48.796;9.210;2023-02-11T08:13:38;23.90;;;15.00;;
18702;SDS011;9481;48.796;9.210;2023-02-11T08:16:05;24.90;;;15.20;;
18702;SDS011;9481;48.796;9.210;2023-02-11T08:18:32;23.67;;;15.13;;
18702;SDS011;9481;48.796;9.210;2023-02-11T08:21:06;25.40;;;15.67;;
18702;SDS011;9481;48.796;9.210;2023-02-11T08:23:37;25.13;;;16.17;;
18702;SDS011;9481;48.796;9.210;2023-02-11T08:26:06;27.13;;;15.37;;
18702;SDS011;9481;48.796;9.210;2023-02-11T08:28:38;23.47;;;15.00;;
18702;SDS011;9481;48.796;9.210;2023-02-11T08:31:13;23.80;;;14.30;;
18702;SDS011;9481;48.796;9.210;2023-02-11T08:33:41;24.17;;;14.37;;
18702;SDS011;9481;48.796;9.210;2023-02-11T08:36:08;22.40;;;14.63;;
18702;SDS011;9481;48.796;9.210;2023-02-11T08:38:37;21.70;;;14.80;;
18702;SDS011;9481;48.796;9.210;2023-02-11T08:41:03;24.37;;;14.63;;
18702;SDS011;9481;48.796;9.210;2023-02-11T08:43:30;23.87;;;14.80;;
18702;SDS011;9481;48.796;9.210;2023-02-11T08:45:57;24.43;;;14.60;;
18702;SDS011;9481;48.796;9.210;2023-02-11T08:48:24;22.83;;;14.33;;
18702;SDS011;9481;48.796;9.210;2023-02-11T08:50:50;22.20;;;15.17;;
18702;SDS011;9481;48.796;9.210;2023-02-11T08:53:15;20.77;;;13.53;;
18702;SDS011;9481;48.796;9.210;2023-02-11T08:55:48;24.37;;;13.87;;
18702;SDS011;9481;48.796;9.210;2023-02-11T08:58:19;22.80;;;13.50;;
18702;SDS011;9481;48.796;9.210;2023-02-11T09:00:46;20.63;;;13.33;;
18702;SDS011;9481;48.796;9.210;2023-02-11T09:03:13;23.30;;;14.13;;
18702;SDS011;9481;48.796;9.210;2023-02-11T09:05:41;21.13;;;13.80;;
18702;SDS011;9481;48.796;9.210;2023-02-11T09:08:11;24.80;;;15.63;;
18702;SDS011;9481;48.796;9.210;2023-02-11T09:10:38;22.00;;;13.80;;
18702;SDS011;9481;48.796;9.210;2023-02-11T09:13:04;26.13;;;15.40;;
18702;SDS011;9481;48.796;9.210;2023-02-11T09:15:31;24.10;;;14.93;;
18702;SDS011;9481;48.796;9.210;2023-02-11T09:17:57;24.17;;;14.97;;
18702;SDS011;9481;48.796;9.210;2023-02-11T09:20:24;23.57;;;15.87;;
18702;SDS011;9481;48.796;9.210;2023-02-11T09:22:51;22.10;;;15.53;;
18702;SDS011;9481;48.796;9.210;2023-02-11T09:25:18;24.30;;;14.43;;
18702;SDS011;9481;48.796;9.210;2023-02-11T09:27:44;26.40;;;15.80;;
18702;SDS011;9481;48.796;9.210;2023-02-11T09:30:10;24.10;;;15.67;;
18702;SDS011;9481;48.796;9.210;2023-02-11T09:32:36;22.70;;;14.30;;
18702;SDS011;9481;48.796;9.210;2023-02-11T09:35:02;21.93;;;14.40;;
18702;SDS011;9481;48.796;9.210;2023-02-11T09:37:28;23.93;;;14.13;;
18702;SDS011;9481;48.796;9.210;2023-02-11T09:39:54;25.57;;;14.60;;
18702;SDS011;9481;48.796;9.210;2023-02-11T09:45:11;22.73;;;15.50;;
18702;SDS011;9481;48.796;9.210;2023-02-11T09:47:46;22.07;;;15.43;;
18702;SDS011;9481;48.796;9.210;2023-02-11T09:50:48;25.73;;;15.83;;
18702;SDS011;9481;48.796;9.210;2023-02-11T09:55:50;19.17;;;14.17;;
18702;SDS011;9481;48.796;9.210;2023-02-11T10:01:07;23.07;;;14.17;;
18702;SDS011;9481;48.796;9.210;2023-02-11T10:04:21;22.90;;;15.57;;
18702;SDS011;9481;48.796;9.210;2023-02-11T10:07:21;25.63;;;14.07;;
18702;SDS011;9481;48.796;9.210;2023-02-11T10:10:43;23.00;;;13.23;;
18702;SDS011;9481;48.796;9.210;2023-02-11T10:13:29;21.00;;;12.57;;
18702;SDS011;9481;48.796;9.210;2023-02-11T10:19:21;19.17;;;12.03;;
18702;SDS011;9481;48.796;9.210;2023-02-11T10:24:52;18.30;;;12.33;;
18702;SDS011;9481;48.796;9.210;2023-02-11T10:27:27;17.83;;;11.73;;
18702;SDS011;9481;48.796;9.210;2023-02-11T10:29:59;15.90;;;11.37;;
18702;SDS011;9481;48.796;9.210;2023-02-11T10:32:41;16.70;;;11.83;;
18702;SDS011;9481;48.796;9.210;2023-02-11T10:35:30;16.33;;;11.73;;
18702;SDS011;9481;48.796;9.210;2023-02-11T10:37:57;17.17;;;11.27;;
18702;SDS011;9481;48.796;9.210;2023-02-11T10:40:25;16.07;;;11.40;;
18702;SDS011;9481;48.796;9.210;2023-02-11T10:42:54;15.83;;;11.17;;
18702;SDS011;9481;48.796;9.210;2023-02-11T10:48:01;13.97;;;10.23;;
18702;SDS011;9481;48.796;9.210;2023-02-11T10:50:33;16.37;;;9.93;;
18702;SDS011;9481;48.796;9.210;2023-02-11T10:53:10;15.67;;;9.87;;
18702;SDS011;9481;48.796;9.210;2023-02-11T10:55:48;15.80;;;9.57;;
18702;SDS011;9481;48.796;9.210;2023-02-11T10:58:39;12.73;;;9.03;;
18702;SDS011;9481;48.796;9.210;2023-02-11T11:01:11;12.53;;;8.63;;
18702;SDS011;9481;48.796;9.210;2023-02-11T11:03:38;10.90;;;8.43;;
18702;SDS011;9481;48.796;9.210;2023-02-11T11:06:12;12.30;;;8.67;;
18702;SDS011;9481;48.796;9.210;2023-02-11T11:08:43;12.17;;;8.20;;
18702;SDS011;9481;48.796;9.210;2023-02-11T11:11:12;12.37;;;7.47;;
18702;SDS011;9481;48.796;9.210;2023-02-11T11:13:53;10.50;;;8.07;;
18702;SDS011;9481;48.796;9.210;2023-02-11T11:16:32;12.50;;;7.97;;
18702;SDS011;9481;48.796;9.210;2023-02-11T11:24:17;9.90;;;7.40;;
18702;SDS011;9481;48.796;9.210;2023-02-11T11:26:49;12.47;;;7.90;;
18702;SDS011;9481;48.796;9.210;2023-02-11T11:31:52;9.20;;;7.50;;
18702;SDS011;9481;48.796;9.210;2023-02-11T11:34:41;7.93;;;6.60;;
18702;SDS011;9481;48.796;9.210;2023-02-11T11:37:16;10.87;;;7.80;;
18702;SDS011;9481;48.796;9.210;2023-02-11T11:40:19;8.77;;;6.80;;
18702;SDS011;9481;48.796;9.210;2023-02-11T11:43:16;10.27;;;6.80;;
18702;SDS011;9481;48.796;9.210;2023-02-11T11:45:54;9.77;;;7.07;;
18702;SDS011;9481;48.796;9.210;2023-02-11T11:48:27;8.90;;;7.03;;
18702;SDS011;9481;48.796;9.210;2023-02-11T11:51:10;13.90;;;7.20;;
18702;SDS011;9481;48.796;9.210;2023-02-11T11:53:59;8.90;;;6.93;;
18702;SDS011;9481;48.796;9.210;2023-02-11T11:56:33;10.27;;;7.33;;
18702;SDS011;9481;48.796;9.210;2023-02-11T11:59:11;9.57;;;7.70;;
18702;SDS011;9481;48.796;9.210;2023-02-11T12:01:53;18.10;;;9.43;;
18702;SDS011;9481;48.796;9.210;2023-02-11T12:13:22;13.53;;;9.60;;
18702;SDS011;9481;48.796;9.210;2023-02-11T12:17:22;9.87;;;8.83;;
18702;SDS011;9481;48.796;9.210;2023-02-11T12:22:24;13.97;;;10.10;;
18702;SDS011;9481;48.796;9.210;2023-02-11T12:30:59;11.13;;;9.37;;
18702;SDS011;9481;48.796;9.210;2023-02-11T12:34:03;15.20;;;9.87;;
18702;SDS011;9481;48.796;9.210;2023-02-11T12:43:04;13.30;;;9.60;;
18702;SDS011;9481;48.796;9.210;2023-02-11T12:48:44;14.90;;;9.07;;
18702;SDS011;9481;48.796;9.210;2023-02-11T12:51:44;10.80;;;8.17;;
18702;SDS011;9481;48.796;9.210;2023-02-11T12:57:25;9.37;;;7.20;;
18702;SDS011;9481;48.796;9.210;2023-02-11T13:05:50;6.83;;;6.03;;
18702;SDS011;9481;48.796;9.210;2023-02-11T13:10:55;8.23;;;5.97;;
18702;SDS011;9481;48.796;9.210;2023-02-11T13:16:52;7.77;;;5.37;;
18702;SDS011;9481;48.796;9.210;2023-02-11T13:19:37;6.00;;;5.40;;
18702;SDS011;9481;48.796;9.210;2023-02-11T13:25:00;6.83;;;5.53;;
18702;SDS011;9481;48.796;9.210;2023-02-11T13:27:50;7.20;;;5.47;;
18702;SDS011;9481;48.796;9.210;2023-02-11T13:30:29;6.13;;;4.90;;
18702;SDS011;9481;48.796;9.210;2023-02-11T13:37:55;7.87;;;5.77;;
18702;SDS011;9481;48.796;9.210;2023-02-11T13:40:25;7.63;;;5.67;;
18702;SDS011;9481;48.796;9.210;2023-02-11T13:43:02;8.57;;;4.93;;
18702;SDS011;9481;48.796;9.210;2023-02-11T13:50:58;6.17;;;4.70;;
18702;SDS011;9481;48.796;9.210;2023-02-11T13:53:28;6.90;;;4.50;;
18702;SDS011;9481;48.796;9.210;2023-02-11T13:58:57;6.50;;;5.10;;
18702;SDS011;9481;48.796;9.210;2023-02-11T14:04:33;8.87;;;6.30;;
18702;SDS011;9481;48.796;9.210;2023-02-11T14:07:28;8.50;;;6.57;;
18702;SDS011;9481;48.796;9.210;2023-02-11T14:13:26;10.23;;;7.87;;
18702;SDS011;9481;48.796;9.210;2023-02-11T14:16:15;13.93;;;8.87;;
18702;SDS011;9481;48.796;9.210;2023-02-11T14:21:12;12.83;;;8.97;;
18702;SDS011;9481;48.796;9.210;2023-02-11T14:35:10;11.13;;;8.90;;
18702;SDS011;9481;48.796;9.210;2023-02-11T14:38:12;11.23;;;9.47;;
18702;SDS011;9481;48.796;9.210;2023-02-11T14:41:09;15.10;;;9.57;;
18702;SDS011;9481;48.796;9.210;2023-02-11T14:43:52;12.80;;;8.97;;
18702;SDS011;9481;48.796;9.210;2023-02-11T14:46:22;13.90;;;9.37;;
18702;SDS011;9481;48.796;9.210;2023-02-11T14:48:52;12.93;;;9.30;;
18702;SDS011;9481;48.796;9.210;2023-02-11T14:51:24;13.53;;;9.20;;
18702;SDS011;9481;48.796;9.210;2023-02-11T14:54:00;12.17;;;9.17;;
18702;SDS011;9481;48.796;9.210;2023-02-11T14:56:39;11.60;;;8.43;;
18702;SDS011;9481;48.796;9.210;2023-02-11T14:59:19;11.73;;;9.13;;
18702;SDS011;9481;48.796;9.210;2023-02-11T15:01:50;12.03;;;8.53;;
18702;SDS011;9481;48.796;9.210;2023-02-11T15:04:22;12.77;;;8.33;;
18702;SDS011;9481;48.796;9.210;2023-02-11T15:07:04;11.90;;;8.20;;
18702;SDS011;9481;48.796;9.210;2023-02-11T15:09:43;11.77;;;8.53;;
18702;SDS011;9481;48.796;9.210;2023-02-11T15:12:24;11.53;;;8.13;;
18702;SDS011;9481;48.796;9.210;2023-02-11T15:14:56;11.37;;;7.73;;
18702;SDS011;9481;48.796;9.210;2023-02-11T15:17:28;13.43;;;8.67;;
18702;SDS011;9481;48.796;9.210;2023-02-11T15:19:57;11.00;;;7.83;;
18702;SDS011;9481;48.796;9.210;2023-02-11T15:22:26;12.57;;;7.53;;
18702;SDS011;9481;48.796;9.210;2023-02-11T15:27:38;10.67;;;7.67;;
18702;SDS011;9481;48.796;9.210;2023-02-11T15:32:49;11.33;;;7.33;;
18702;SDS011;9481;48.796;9.210;2023-02-11T15:35:23;12.83;;;7.87;;
18702;SDS011;9481;48.796;9.210;2023-02-11T15:37:59;11.03;;;7.60;;
18702;SDS011;9481;48.796;9.210;2023-02-11T15:40:26;11.53;;;8.47;;
18702;SDS011;9481;48.796;9.210;2023-02-11T15:43:02;14.93;;;8.97;;
18702;SDS011;9481;48.796;9.210;2023-02-11T15:45:31;15.27;;;9.07;;
18702;SDS011;9481;48.796;9.210;2023-02-11T15:48:05;12.43;;;8.53;;
18702;SDS011;9481;48.796;9.210;2023-02-11T15:51:28;14.00;;;9.20;;
18702;SDS011;9481;48.796;9.210;2023-02-11T15:53:47;14.43;;;9.37;;
18702;SDS011;9481;48.796;9.210;2023-02-11T15:58:55;14.37;;;9.07;;
18702;SDS011;9481;48.796;9.210;2023-02-11T16:01:34;12.07;;;8.43;;
18702;SDS011;9481;48.796;9.210;2023-02-11T16:04:01;14.80;;;9.50;;
18702;SDS011;9481;48.796;9.210;2023-02-11T16:06:39;12.60;;;8.57;;
18702;SDS011;9481;48.796;9.210;2023-02-11T16:11:36;15.60;;;9.17;;
18702;SDS011;9481;48.796;9.210;2023-02-11T16:14:48;12.40;;;8.83;;
18702;SDS011;9481;48.796;9.210;2023-02-11T16:17:11;13.23;;;9.03;;
18702;SDS011;9481;48.796;9.210;2023-02-11T16:19:49;16.87;;;9.87;;
18702;SDS011;9481;48.796;9.210;2023-02-11T16:22:23;16.13;;;10.67;;
18702;SDS011;9481;48.796;9.210;2023-02-11T16:24:54;13.87;;;9.40;;
18702;SDS011;9481;48.796;9.210;2023-02-11T16:27:34;14.77;;;9.27;;
18702;SDS011;9481;48.796;9.210;2023-02-11T16:30:05;13.80;;;9.37;;
18702;SDS011;9481;48.796;9.210;2023-02-11T16:32:52;13.93;;;9.47;;
18702;SDS011;9481;48.796;9.210;2023-02-11T16:35:18;14.70;;;9.67;;
18702;SDS011;9481;48.796;9.210;2023-02-11T16:37:45;14.10;;;9.50;;
18702;SDS011;9481;48.796;9.210;2023-02-11T16:40:10;14.63;;;10.03;;
18702;SDS011;9481;48.796;9.210;2023-02-11T16:42:37;14.73;;;9.77;;
18702;SDS011;9481;48.796;9.210;2023-02-11T16:45:03;14.97;;;10.27;;
18702;SDS011;9481;48.796;9.210;2023-02-11T16:47:28;14.57;;;10.23;;
18702;SDS011;9481;48.796;9.210;2023-02-11T16:49:57;12.47;;;9.70;;
18702;SDS011;9481;48.796;9.210;2023-02-11T16:52:25;14.03;;;9.83;;
18702;SDS011;9481;48.796;9.210;2023-02-11T16:54:51;14.90;;;10.07;;
18702;SDS011;9481;48.796;9.210;2023-02-11T16:57:17;15.87;;;10.77;;
18702;SDS011;9481;48.796;9.210;2023-02-11T16:59:46;14.70;;;10.40;;
18702;SDS011;9481;48.796;9.210;2023-02-11T17:02:14;15.33;;;10.47;;
18702;SDS011;9481;48.796;9.210;2023-02-11T17:04:53;16.17;;;11.37;;
18702;SDS011;9481;48.796;9.210;2023-02-11T17:07:22;14.60;;;10.67;;
18702;SDS011;9481;48.796;9.210;2023-02-11T17:09:47;15.67;;;10.07;;
18702;SDS011;9481;48.796;9.210;2023-02-11T17:12:13;14.83;;;10.50;;
18702;SDS011;9481;48.796;9.210;2023-02-11T17:14:39;19.47;;;11.80;;
18702;SDS011;9481;48.796;9.210;2023-02-11T17:17:04;16.33;;;11.20;;
18702;SDS011;9481;48.796;9.210;2023-02-11T17:19:30;14.23;;;10.20;;
18702;SDS011;9481;48.796;9.210;2023-02-11T17:21:56;17.40;;;10.83;;
18702;SDS011;9481;48.796;9.210;2023-02-11T17:24:22;16.37;;;11.57;;
18702;SDS011;9481;48.796;9.210;2023-02-11T17:26:47;17.00;;;11.20;;